createdAt,value
2023-05-19T00:01:37.726Z,13.51
2023-05-19T00:04:40.815Z,13.57
2023-05-19T00:07:44.220Z,13.54
2023-05-19T00:10:47.225Z,13.58
2023-05-19T00:13:51.153Z,13.58
2023-05-19T00:16:56.021Z,13.55
2023-05-19T00:19:58.509Z,13.42
2023-05-19T00:23:01.297Z,13.55
2023-05-19T00:26:03.733Z,13.53
2023-05-19T00:29:06.444Z,13.51
2023-05-19T00:32:09.042Z,13.54
2023-05-19T00:35:12.452Z,13.43
2023-05-19T00:38:15.074Z,13.50
2023-05-19T00:41:18.212Z,13.50
2023-05-19T00:44:20.568Z,13.42
2023-05-19T00:47:23.215Z,13.38
2023-05-19T00:50:27.422Z,13.37
2023-05-19T00:53:31.852Z,13.40
2023-05-19T00:56:34.337Z,13.22
2023-05-19T00:59:37.065Z,13.33
2023-05-19T01:02:40.102Z,13.32
2023-05-19T01:05:47.564Z,13.31
2023-05-19T01:08:51.646Z,13.33
2023-05-19T01:11:54.329Z,13.31
2023-05-19T01:14:58.756Z,13.19
2023-05-19T01:18:20.794Z,13.25
2023-05-19T01:22:01.170Z,13.25
2023-05-19T01:25:34.200Z,13.30
2023-05-19T01:28:53.196Z,13.31
2023-05-19T01:32:00.124Z,13.32
2023-05-19T01:35:05.630Z,13.29
2023-05-19T01:38:11.352Z,13.28
2023-05-19T01:41:16.949Z,13.25
2023-05-19T01:44:22.304Z,13.24
2023-05-19T01:47:24.967Z,13.26
2023-05-19T01:50:31.958Z,13.29
2023-05-19T01:53:34.632Z,13.29
2023-05-19T01:56:43.738Z,13.17
2023-05-19T01:59:52.095Z,13.28
2023-05-19T02:03:33.099Z,13.27
2023-05-19T02:06:35.709Z,13.27
2023-05-19T02:09:41.946Z,13.23
2023-05-19T02:12:46.140Z,13.12
2023-05-19T02:15:49.902Z,13.21
2023-05-19T02:18:54.045Z,13.22
2023-05-19T02:21:56.847Z,13.24
2023-05-19T02:24:59.252Z,13.12
2023-05-19T02:28:01.933Z,13.22
2023-05-19T02:31:08.802Z,13.22
2023-05-19T02:34:11.513Z,13.21
2023-05-19T02:37:15.559Z,13.21
2023-05-19T02:40:18.606Z,13.11
2023-05-19T02:43:21.010Z,13.17
2023-05-19T02:46:24.153Z,13.06
2023-05-19T02:49:26.696Z,13.24
2023-05-19T02:52:29.623Z,13.21
2023-05-19T02:55:31.980Z,13.22
2023-05-19T02:58:34.594Z,13.14
2023-05-19T03:01:37.797Z,13.13
2023-05-19T03:04:43.055Z,13.21
2023-05-19T03:07:45.715Z,13.21
2023-05-19T03:10:48.693Z,13.18
2023-05-19T03:13:51.158Z,13.18
2023-05-19T03:16:54.135Z,13.17
2023-05-19T03:19:56.572Z,13.11
2023-05-19T03:23:00.396Z,13.07
2023-05-19T03:26:04.273Z,13.06
2023-05-19T03:29:07.960Z,13.14
2023-05-19T03:32:11.212Z,13.22
2023-05-19T03:35:13.892Z,13.15
2023-05-19T03:38:16.434Z,13.26
2023-05-19T03:41:21.314Z,13.25
2023-05-19T03:44:23.724Z,13.29
2023-05-19T03:47:27.553Z,13.28
2023-05-19T03:50:31.747Z,13.26
2023-05-19T03:53:35.725Z,13.25
2023-05-19T03:56:40.022Z,13.42
2023-05-19T03:59:44.029Z,13.40
2023-05-19T04:02:46.593Z,13.44
2023-05-19T04:05:49.423Z,13.48
2023-05-19T04:08:51.853Z,13.43
2023-05-19T04:11:54.538Z,13.53
2023-05-19T04:14:56.935Z,13.52
2023-05-19T04:18:00.380Z,13.52
2023-05-19T04:21:03.071Z,13.52
2023-05-19T04:24:06.667Z,13.59
2023-05-19T04:27:12.283Z,13.63
2023-05-19T04:30:22.147Z,13.78
2023-05-19T04:33:24.748Z,13.73
2023-05-19T04:36:27.607Z,13.74
2023-05-19T04:39:31.534Z,13.82
2023-05-19T04:42:34.947Z,13.93
2023-05-19T04:45:37.777Z,14.06
2023-05-19T04:48:41.283Z,14.07
2023-05-19T04:51:46.129Z,14.16
2023-05-19T04:54:48.815Z,14.23
2023-05-19T04:57:51.174Z,14.23
2023-05-19T05:01:00.930Z,14.31
2023-05-19T05:04:03.954Z,14.27
2023-05-19T05:07:06.921Z,14.43
2023-05-19T05:10:10.284Z,14.60
2023-05-19T05:13:13.271Z,14.63
2023-05-19T05:16:16.808Z,14.76
2023-05-19T05:19:19.911Z,14.76
2023-05-19T05:22:23.381Z,14.55
2023-05-19T05:25:26.407Z,14.83
2023-05-19T05:28:28.850Z,15.01
2023-05-19T05:31:31.745Z,15.09
2023-05-19T05:34:34.604Z,15.12
2023-05-19T05:37:37.524Z,15.29
2023-05-19T05:40:39.929Z,15.32
2023-05-19T05:43:43.506Z,15.38
2023-05-19T05:46:46.284Z,15.55
2023-05-19T05:49:51.598Z,15.64
2023-05-19T05:52:57.610Z,16.03
2023-05-19T05:56:00.985Z,15.97
2023-05-19T05:59:04.243Z,15.93
2023-05-19T06:02:07.322Z,15.73
2023-05-19T06:05:12.448Z,15.68
2023-05-19T06:08:15.242Z,15.71
2023-05-19T06:11:19.658Z,15.85
2023-05-19T06:14:23.038Z,15.95
2023-05-19T06:17:26.433Z,15.97
2023-05-19T06:20:29.202Z,16.16
2023-05-19T06:23:32.427Z,16.63
2023-05-19T06:26:35.096Z,16.91
2023-05-19T06:29:37.992Z,16.77
2023-05-19T06:32:41.722Z,16.84
2023-05-19T06:35:44.562Z,16.66
2023-05-19T06:38:46.949Z,16.45
2023-05-19T06:41:49.868Z,16.52
2023-05-19T06:44:58.949Z,16.48
2023-05-19T06:48:03.699Z,16.79
2023-05-19T06:51:06.475Z,17.18
2023-05-19T06:54:11.143Z,16.80
2023-05-19T06:57:13.591Z,16.94
2023-05-19T07:00:18.794Z,16.81
2023-05-19T07:03:23.461Z,17.09
2023-05-19T07:06:26.761Z,17.36
2023-05-19T07:09:29.308Z,17.68
2023-05-19T07:12:32.506Z,17.69
2023-05-19T07:15:35.268Z,17.69
2023-05-19T07:18:38.994Z,17.55
2023-05-19T07:21:42.492Z,17.70
2023-05-19T07:24:45.367Z,17.72
2023-05-19T07:27:48.326Z,18.17
2023-05-19T07:30:51.334Z,18.55
2023-05-19T07:33:54.846Z,18.86
2023-05-19T07:36:57.559Z,18.92
2023-05-19T07:40:00.076Z,19.37
2023-05-19T07:43:02.816Z,19.16
2023-05-19T07:46:06.178Z,19.34
2023-05-19T07:49:09.011Z,19.35
2023-05-19T07:52:11.466Z,19.33
2023-05-19T07:55:14.962Z,19.22
2023-05-19T07:58:17.521Z,19.22
2023-05-19T08:01:20.156Z,19.15
2023-05-19T08:04:23.020Z,19.22
2023-05-19T08:07:25.607Z,19.45
2023-05-19T08:10:28.453Z,19.17
2023-05-19T08:13:31.390Z,19.83
2023-05-19T08:16:34.134Z,19.81
2023-05-19T08:19:36.592Z,19.64
2023-05-19T08:22:39.296Z,20.17
2023-05-19T08:25:41.941Z,19.43
2023-05-19T08:28:44.684Z,19.38
2023-05-19T08:31:47.270Z,20.15
2023-05-19T08:34:50.034Z,19.78
2023-05-19T08:37:52.457Z,19.58
2023-05-19T08:40:55.314Z,19.31
2023-05-19T08:43:57.764Z,19.52
2023-05-19T08:47:04.985Z,19.61
2023-05-19T08:50:10.821Z,19.71
2023-05-19T08:53:33.366Z,20.41
2023-05-19T08:56:37.699Z,20.37
2023-05-19T08:59:41.538Z,20.78
2023-05-19T09:02:55.028Z,20.37
2023-05-19T09:06:17.237Z,20.20
2023-05-19T09:09:20.102Z,20.35
2023-05-19T09:12:24.024Z,20.59
2023-05-19T09:15:30.777Z,20.90
2023-05-19T09:18:34.026Z,21.00
2023-05-19T09:21:37.310Z,21.02
2023-05-19T09:24:40.811Z,21.01
2023-05-19T09:27:43.230Z,20.46
2023-05-19T09:30:45.997Z,21.12
2023-05-19T09:33:53.239Z,21.46
2023-05-19T09:36:57.833Z,21.09
2023-05-19T09:40:00.635Z,21.13
2023-05-19T09:43:05.561Z,20.89
2023-05-19T09:46:11.869Z,20.47
2023-05-19T09:49:20.549Z,21.08
2023-05-19T09:52:23.259Z,21.84
2023-05-19T09:55:28.808Z,21.74
2023-05-19T09:58:35.447Z,20.88
2023-05-19T10:01:41.273Z,20.85
2023-05-19T10:04:45.105Z,21.06
2023-05-19T10:07:54.649Z,21.28
2023-05-19T10:10:57.939Z,21.46
2023-05-19T10:14:00.789Z,21.85
2023-05-19T10:17:04.120Z,21.49
2023-05-19T10:20:15.731Z,21.74
2023-05-19T10:23:18.722Z,21.78
2023-05-19T10:26:22.520Z,21.62
2023-05-19T10:29:32.420Z,22.32
2023-05-19T10:32:37.428Z,22.18
2023-05-19T10:36:02.585Z,21.54
2023-05-19T10:39:07.874Z,21.37
2023-05-19T10:42:27.904Z,22.12
2023-05-19T10:45:36.691Z,22.52
2023-05-19T10:48:44.963Z,22.73
2023-05-19T10:51:47.413Z,22.66
2023-05-19T10:54:51.461Z,21.97
2023-05-19T10:57:56.883Z,21.59
2023-05-19T11:01:02.512Z,21.32
2023-05-19T11:04:07.163Z,21.63
2023-05-19T11:07:10.545Z,21.80
2023-05-19T11:10:13.458Z,22.38
2023-05-19T11:13:22.677Z,22.66
2023-05-19T11:16:29.986Z,22.96
2023-05-19T11:19:35.343Z,22.26
2023-05-19T11:22:38.890Z,21.76
2023-05-19T11:25:53.952Z,22.08
2023-05-19T11:28:57.148Z,22.48
2023-05-19T11:32:00.725Z,22.56
2023-05-19T11:35:03.380Z,22.80
2023-05-19T11:38:07.239Z,22.69
2023-05-19T11:41:09.651Z,23.10
2023-05-19T11:44:12.327Z,23.27
2023-05-19T11:47:16.056Z,23.28
2023-05-19T11:50:20.330Z,23.28
2023-05-19T11:53:23.303Z,23.05
2023-05-19T11:56:26.186Z,22.93
2023-05-19T11:59:34.159Z,23.97
2023-05-19T12:02:38.529Z,23.51
2023-05-19T12:05:47.156Z,22.88
2023-05-19T12:08:56.251Z,23.00
2023-05-19T12:11:59.079Z,22.63
2023-05-19T12:15:03.666Z,22.78
2023-05-19T12:18:06.862Z,23.24
2023-05-19T12:21:09.383Z,23.31
2023-05-19T12:24:12.175Z,22.81
2023-05-19T12:27:24.492Z,22.62
2023-05-19T12:30:29.763Z,22.46
2023-05-19T12:33:34.278Z,22.98
2023-05-19T12:36:38.631Z,23.42
2023-05-19T12:39:42.470Z,23.44
2023-05-19T12:42:45.629Z,23.63
2023-05-19T12:45:48.714Z,23.78
2023-05-19T12:48:51.806Z,23.97
2023-05-19T12:51:54.449Z,23.95
2023-05-19T12:55:01.626Z,23.84
2023-05-19T12:58:06.967Z,24.08
2023-05-19T13:01:17.572Z,24.28
2023-05-19T13:04:20.215Z,24.38
2023-05-19T13:07:22.926Z,24.50
2023-05-19T13:10:29.550Z,24.40
2023-05-19T13:13:32.409Z,24.36
2023-05-19T13:16:34.871Z,24.40
2023-05-19T13:19:37.843Z,24.40
2023-05-19T13:22:40.628Z,24.55
2023-05-19T13:25:43.786Z,24.69
2023-05-19T13:28:46.161Z,24.72
2023-05-19T13:31:48.861Z,24.66
2023-05-19T13:34:51.225Z,24.21
2023-05-19T13:37:54.114Z,23.97
2023-05-19T13:40:56.595Z,24.10
2023-05-19T13:43:59.817Z,23.98
2023-05-19T13:47:02.382Z,23.65
2023-05-19T13:50:05.740Z,23.23
2023-05-19T13:53:08.270Z,23.32
2023-05-19T13:56:11.093Z,23.17
2023-05-19T13:59:13.621Z,23.28
2023-05-19T14:02:16.311Z,23.23
2023-05-19T14:05:18.962Z,23.54
2023-05-19T14:08:22.114Z,23.90
2023-05-19T14:11:24.835Z,24.31
2023-05-19T14:14:27.308Z,24.47
2023-05-19T14:17:30.013Z,24.67
2023-05-19T14:20:32.500Z,24.32
2023-05-19T14:23:35.547Z,24.00
2023-05-19T14:26:38.087Z,24.39
2023-05-19T14:29:41.860Z,24.21
2023-05-19T14:32:44.367Z,24.48
2023-05-19T14:35:47.215Z,24.58
2023-05-19T14:38:49.730Z,24.76
2023-05-19T14:41:53.041Z,24.67
2023-05-19T14:44:56.003Z,24.73
2023-05-19T14:47:58.888Z,24.64
2023-05-19T14:51:01.415Z,24.42
2023-05-19T14:54:04.137Z,24.50
2023-05-19T14:57:08.202Z,24.34
2023-05-19T15:00:11.558Z,24.52
2023-05-19T15:03:14.125Z,24.32
2023-05-19T15:06:16.806Z,24.37
2023-05-19T15:09:19.266Z,24.37
2023-05-19T15:12:22.156Z,23.93
2023-05-19T15:15:24.590Z,23.85
2023-05-19T15:18:27.312Z,23.66
2023-05-19T15:21:29.730Z,23.62
2023-05-19T15:24:32.464Z,23.88
2023-05-19T15:27:38.001Z,24.04
2023-05-19T15:30:41.148Z,24.20
2023-05-19T15:33:43.536Z,24.34
2023-05-19T15:36:46.845Z,24.13
2023-05-19T15:39:49.460Z,23.91
2023-05-19T15:42:52.138Z,23.84
2023-05-19T15:45:55.274Z,23.71
2023-05-19T15:48:58.104Z,23.59
2023-05-19T15:52:00.618Z,23.52
2023-05-19T15:55:03.429Z,23.28
2023-05-19T15:58:05.964Z,23.27
2023-05-19T16:01:08.980Z,23.15
2023-05-19T16:04:11.837Z,23.13
2023-05-19T16:07:14.357Z,22.99
2023-05-19T16:10:17.107Z,23.09
2023-05-19T16:13:19.457Z,23.20
2023-05-19T16:16:22.181Z,23.18
2023-05-19T16:19:24.785Z,23.17
2023-05-19T16:22:27.652Z,23.10
2023-05-19T16:25:30.181Z,23.11
2023-05-19T16:28:32.976Z,23.03
2023-05-19T16:31:35.494Z,22.97
2023-05-19T16:34:40.567Z,22.94
2023-05-19T16:37:43.102Z,22.87
2023-05-19T16:40:45.841Z,22.91
2023-05-19T16:43:48.316Z,22.80
2023-05-19T16:46:51.055Z,22.79
2023-05-19T16:49:53.495Z,22.72
2023-05-19T16:52:56.265Z,22.70
2023-05-19T16:56:02.046Z,22.60
2023-05-19T16:59:04.814Z,22.60
2023-05-19T17:02:08.250Z,22.59
2023-05-19T17:05:11.008Z,22.54
2023-05-19T17:08:13.488Z,22.48
2023-05-19T17:11:16.184Z,22.43
2023-05-19T17:14:18.561Z,22.35
2023-05-19T17:17:21.501Z,22.29
2023-05-19T17:20:23.891Z,22.20
2023-05-19T17:23:26.608Z,22.03
2023-05-19T17:26:29.038Z,22.05
2023-05-19T17:29:32.356Z,21.97
2023-05-19T17:32:38.636Z,21.91
2023-05-19T17:35:42.234Z,21.85
2023-05-19T17:38:44.669Z,21.78
2023-05-19T17:41:47.430Z,21.69
2023-05-19T17:44:49.874Z,21.63
2023-05-19T17:47:52.633Z,21.59
2023-05-19T17:50:55.303Z,21.46
2023-05-19T17:53:58.766Z,21.39
2023-05-19T17:57:06.569Z,21.42
2023-05-19T18:00:10.613Z,21.33
2023-05-19T18:03:13.854Z,21.28
2023-05-19T18:06:17.709Z,21.13
2023-05-19T18:09:23.175Z,21.16
2023-05-19T18:12:25.599Z,21.08
2023-05-19T18:15:28.377Z,21.04
2023-05-19T18:18:30.888Z,20.97
2023-05-19T18:21:33.844Z,20.92
2023-05-19T18:24:36.246Z,20.86
2023-05-19T18:27:38.971Z,20.66
2023-05-19T18:30:41.493Z,20.58
2023-05-19T18:33:47.141Z,20.58
2023-05-19T18:36:49.764Z,20.52
2023-05-19T18:39:52.582Z,20.52
2023-05-19T18:42:54.996Z,20.42
2023-05-19T18:45:58.341Z,20.35
2023-05-19T18:49:00.869Z,20.35
2023-05-19T18:52:03.593Z,20.17
2023-05-19T18:55:07.212Z,20.19
2023-05-19T18:58:09.945Z,20.11
2023-05-19T19:01:16.410Z,19.96
2023-05-19T19:04:19.385Z,20.05
2023-05-19T19:07:24.212Z,19.98
2023-05-19T19:10:27.424Z,19.91
2023-05-19T19:13:29.777Z,19.81
2023-05-19T19:16:34.716Z,19.64
2023-05-19T19:19:37.336Z,19.58
2023-05-19T19:22:40.185Z,19.36
2023-05-19T19:25:42.547Z,19.30
2023-05-19T19:28:46.347Z,19.21
2023-05-19T19:31:48.974Z,19.26
2023-05-19T19:34:54.644Z,19.23
2023-05-19T19:37:58.453Z,19.23
2023-05-19T19:41:01.270Z,19.19
2023-05-19T19:44:03.831Z,19.12
2023-05-19T19:47:06.862Z,19.08
2023-05-19T19:50:10.602Z,18.97
2023-05-19T19:53:13.276Z,18.87
2023-05-19T19:56:15.752Z,18.94
2023-05-19T19:59:18.520Z,18.88
2023-05-19T20:02:21.678Z,18.93
2023-05-19T20:05:24.495Z,18.86
2023-05-19T20:08:27.356Z,18.85
2023-05-19T20:11:30.513Z,18.85
2023-05-19T20:14:37.858Z,18.66
2023-05-19T20:17:41.401Z,18.60
2023-05-19T20:20:44.028Z,18.62
2023-05-19T20:23:46.960Z,18.63
2023-05-19T20:26:49.250Z,18.53
2023-05-19T20:29:52.015Z,18.65
2023-05-19T20:32:54.425Z,18.60
2023-05-19T20:35:57.178Z,18.58
2023-05-19T20:38:59.721Z,18.46
2023-05-19T20:42:02.436Z,18.43
2023-05-19T20:45:05.182Z,18.42
2023-05-19T20:48:07.887Z,18.26
2023-05-19T20:51:10.278Z,18.20
2023-05-19T20:54:13.243Z,18.24
2023-05-19T20:57:16.341Z,18.25
2023-05-19T21:00:19.093Z,18.21
2023-05-19T21:03:23.380Z,18.08
2023-05-19T21:06:26.369Z,18.17
2023-05-19T21:09:28.932Z,18.04
2023-05-19T21:12:34.402Z,18.00
2023-05-19T21:15:36.928Z,18.07
2023-05-19T21:18:39.627Z,18.08
2023-05-19T21:21:44.763Z,18.05
2023-05-19T21:24:47.592Z,17.97
2023-05-19T21:27:51.447Z,17.79
2023-05-19T21:30:54.179Z,17.81
2023-05-19T21:33:56.767Z,17.68
2023-05-19T21:36:59.532Z,17.64
2023-05-19T21:40:01.913Z,17.60
2023-05-19T21:43:05.925Z,17.55
2023-05-19T21:46:08.446Z,17.40
2023-05-19T21:49:11.153Z,17.33
2023-05-19T21:52:13.555Z,17.33
2023-05-19T21:55:16.275Z,17.23
2023-05-19T21:58:18.866Z,17.20
2023-05-19T22:01:22.592Z,17.29
2023-05-19T22:04:25.456Z,17.23
2023-05-19T22:07:28.618Z,17.19
2023-05-19T22:10:31.810Z,17.15
2023-05-19T22:13:34.428Z,17.16
2023-05-19T22:16:37.202Z,17.21
2023-05-19T22:19:39.587Z,17.13
2023-05-19T22:22:42.271Z,16.96
2023-05-19T22:25:44.705Z,16.87
2023-05-19T22:28:47.343Z,16.85
2023-05-19T22:31:52.267Z,16.80
2023-05-19T22:34:55.024Z,16.83
2023-05-19T22:37:57.478Z,16.84
2023-05-19T22:41:00.157Z,16.78
2023-05-19T22:44:02.507Z,16.90
2023-05-19T22:47:05.314Z,16.92
2023-05-19T22:50:12.362Z,16.98
2023-05-19T22:53:15.181Z,16.89
2023-05-19T22:56:17.648Z,16.81
2023-05-19T22:59:21.594Z,16.74
2023-05-19T23:02:24.046Z,16.66
2023-05-19T23:05:26.681Z,16.58
2023-05-19T23:08:29.391Z,16.53
2023-05-19T23:11:32.127Z,16.53
2023-05-19T23:14:34.659Z,16.50
2023-05-19T23:17:37.617Z,16.45
2023-05-19T23:20:40.013Z,16.48
2023-05-19T23:23:42.772Z,16.35
2023-05-19T23:26:45.223Z,16.33
2023-05-19T23:29:51.327Z,16.31
2023-05-19T23:32:54.025Z,16.22
2023-05-19T23:35:59.249Z,16.21
2023-05-19T23:39:01.766Z,16.22
2023-05-19T23:42:05.727Z,16.22
2023-05-19T23:45:08.557Z,16.28
2023-05-19T23:48:11.579Z,16.25
2023-05-19T23:51:14.076Z,16.21
2023-05-19T23:54:16.715Z,16.17
2023-05-19T23:57:19.124Z,16.13
